Time;durP1;ratioP1;P1;durP2;ratioP2;P2;SDS_P1;SDS_P2;PMS_P1;PMS_P2;Temp;Humidity;BMP_temperature;BMP_pressure;BME280_temperature;BME280_humidity;BME280_pressure;Samples;Min_cycle;Max_cycle;Signal;HPM_P1;HPM_P2
2022/09/08 00:02:08;;;;;;;8.07;4.47;;;;;;;14.94;79.05;94957.66;5110272;28;20251;-80
2022/09/08 00:04:35;;;;;;;5.20;4.30;;;;;;;15.02;79.31;94958.66;5109605;28;20570;-80
2022/09/08 00:07:02;;;;;;;6.65;4.32;;;;;;;14.84;79.79;94960.88;5109880;28;20282;-80
2022/09/08 00:09:30;;;;;;;6.40;4.50;;;;;;;14.84;80.12;94964.41;5109359;28;20198;-80
2022/09/08 00:11:57;;;;;;;5.53;4.38;;;;;;;14.78;80.20;94965.75;5111836;28;20580;-80
2022/09/08 00:14:25;;;;;;;6.88;4.35;;;;;;;14.81;79.92;94959.63;5113874;28;20206;-80
2022/09/08 00:16:52;;;;;;;6.80;4.30;;;;;;;14.81;79.95;94962.34;5113551;28;20232;-80
2022/09/08 00:19:19;;;;;;;7.88;4.20;;;;;;;14.77;79.87;94963.38;5113074;28;20201;-80
2022/09/08 00:21:45;;;;;;;7.25;4.68;;;;;;;14.77;80.02;94968.84;5113788;28;20278;-80
2022/09/08 00:24:12;;;;;;;6.45;4.75;;;;;;;14.71;80.37;94962.06;5113439;28;20621;-80
2022/09/08 00:26:39;;;;;;;8.57;4.43;;;;;;;14.75;80.15;94961.03;5113551;28;20262;-80
2022/09/08 00:29:07;;;;;;;8.68;4.63;;;;;;;14.79;80.05;94963.84;5112689;28;20202;-80
2022/09/08 00:31:39;;;;;;;5.38;3.97;;;;;;;14.76;80.92;94957.13;5131585;27;20221;-80
2022/09/08 00:34:06;;;;;;;5.95;4.20;;;;;;;14.69;80.71;94962.41;5133536;27;20220;-80
2022/09/08 00:36:33;;;;;;;6.90;3.80;;;;;;;14.68;80.95;94966.25;5133462;27;20205;-80
2022/09/08 00:39:01;;;;;;;8.95;4.82;;;;;;;14.67;80.75;94969.31;5133730;27;20585;-80
2022/09/08 00:41:29;;;;;;;4.80;3.97;;;;;;;14.51;81.21;94961.84;5133614;27;20659;-80
2022/09/08 00:44:00;;;;;;;8.18;4.80;;;;;;;14.53;81.61;94972.44;5133659;27;20265;-80
2022/09/08 00:46:31;;;;;;;6.07;4.32;;;;;;;14.29;81.99;94970.50;5131034;27;20624;-80
2022/09/08 00:49:04;;;;;;;5.68;4.75;;;;;;;14.16;82.06;94972.44;5113026;28;20190;-80
2022/09/08 00:51:32;;;;;;;8.32;4.93;;;;;;;14.18;82.57;94970.19;5112667;28;20545;-80
2022/09/08 00:54:01;;;;;;;6.13;4.25;;;;;;;14.07;83.22;94968.25;5112592;28;20202;-80
2022/09/08 00:56:30;;;;;;;6.22;4.28;;;;;;;14.18;82.90;94975.63;5112289;28;20221;-80
2022/09/08 00:58:59;;;;;;;8.05;4.20;;;;;;;14.28;82.31;94973.56;5111696;28;20206;-80
2022/09/08 01:01:26;;;;;;;7.22;4.35;;;;;;;14.37;81.59;94972.31;5111225;28;20194;-80
2022/09/08 01:03:53;;;;;;;5.88;4.22;;;;;;;14.36;81.50;94964.47;5111940;28;20239;-80
2022/09/08 01:12:45;;;;;;;5.88;4.38;;;;;;;14.33;81.27;94973.34;5112435;28;20185;-80
2022/09/08 01:15:18;;;;;;;5.53;4.18;;;;;;;14.28;81.44;94968.13;5112251;28;20645;-80
2022/09/08 01:17:47;;;;;;;5.32;4.00;;;;;;;14.27;81.27;94958.34;5112817;28;20197;-80
2022/09/08 01:20:16;;;;;;;6.47;4.00;;;;;;;14.30;81.16;94960.41;5112326;28;20249;-80
2022/09/08 01:23:40;;;;;;;5.10;3.80;;;;;;;14.30;81.43;94955.75;5110995;28;20316;-80
2022/09/08 01:26:34;;;;;;;6.82;4.10;;;;;;;14.21;81.49;94958.56;5111965;28;20207;-80
2022/09/08 01:29:05;;;;;;;5.53;4.00;;;;;;;14.29;81.37;94964.25;5112218;28;20244;-80
2022/09/08 01:31:34;;;;;;;7.60;4.20;;;;;;;14.12;81.83;94968.81;5129409;27;20225;-80
2022/09/08 01:34:01;;;;;;;4.70;3.97;;;;;;;14.08;82.50;94967.09;5132151;27;20232;-80
2022/09/08 01:36:29;;;;;;;4.63;4.05;;;;;;;14.05;82.28;94970.53;5132373;27;20692;-80
2022/09/08 01:38:56;;;;;;;7.25;4.72;;;;;;;14.08;82.22;94970.63;5132087;27;20250;-80
2022/09/08 01:41:23;;;;;;;14.27;4.95;;;;;;;14.10;82.20;94978.44;5132089;27;20258;-80
2022/09/08 01:43:49;;;;;;;5.35;4.28;;;;;;;14.08;82.05;94978.00;5132380;27;20278;-80
2022/09/08 01:46:18;;;;;;;6.18;4.38;;;;;;;14.10;82.43;94973.81;5131042;27;20197;-79
2022/09/08 01:48:45;;;;;;;8.65;4.25;;;;;;;14.15;82.01;94968.13;5110811;28;20251;-79
2022/09/08 01:51:12;;;;;;;5.55;4.50;;;;;;;14.13;82.07;94961.44;5110649;28;20267;-79
2022/09/08 01:53:39;;;;;;;5.47;3.95;;;;;;;14.10;82.23;94968.34;5111819;28;20603;-79
2022/09/08 01:56:07;;;;;;;7.65;4.10;;;;;;;14.14;81.94;94966.53;5111697;28;20202;-79
2022/09/08 01:58:33;;;;;;;6.43;4.28;;;;;;;14.15;82.00;94970.84;5111458;28;20744;-79
2022/09/08 02:01:01;;;;;;;5.47;4.03;;;;;;;14.10;82.29;94962.91;5111634;28;20271;-79
2022/09/08 02:03:29;;;;;;;7.57;5.75;;;;;;;14.13;82.24;94962.22;5110579;28;20210;-79
2022/09/08 02:06:00;;;;;;;9.88;3.67;;;;;;;14.13;82.07;94951.31;5110584;28;20677;-79
2022/09/08 02:08:28;;;;;;;9.38;4.22;;;;;;;14.10;82.15;94949.28;5110772;28;20619;-78
2022/09/08 02:10:57;;;;;;;7.70;4.60;;;;;;;14.07;82.28;94952.72;5110678;28;20209;-81
2022/09/08 02:13:24;;;;;;;5.07;3.85;;;;;;;14.03;82.29;94951.78;5110653;28;20686;-81
2022/09/08 02:15:52;;;;;;;8.43;4.13;;;;;;;14.00;82.45;94955.19;5111809;28;20593;-80
2022/09/08 02:18:18;;;;;;;6.88;4.63;;;;;;;14.11;83.12;94948.16;5111352;28;20251;-80
2022/09/08 02:20:46;;;;;;;6.72;4.70;;;;;;;14.16;83.23;94950.66;5111108;28;20226;-80
2022/09/08 02:23:13;;;;;;;6.38;4.57;;;;;;;13.90;84.06;94949.41;5110908;28;20201;-80
2022/09/08 02:25:40;;;;;;;6.65;4.45;;;;;;;13.84;84.65;94949.63;5110880;28;20706;-80
2022/09/08 02:28:07;;;;;;;6.60;4.10;;;;;;;13.83;84.44;94944.53;5110961;28;20818;-80
2022/09/08 02:30:34;;;;;;;6.82;4.18;;;;;;;13.82;84.76;94951.09;5120955;27;20633;-80
2022/09/08 02:33:01;;;;;;;6.03;4.20;;;;;;;13.76;84.41;94952.47;5131035;27;20548;-80
2022/09/08 02:35:28;;;;;;;6.75;4.40;;;;;;;13.69;84.38;94949.50;5130686;27;20217;-80
2022/09/08 02:37:56;;;;;;;8.20;5.20;;;;;;;13.63;84.96;94948.16;5131806;27;20189;-80
2022/09/08 02:40:23;;;;;;;9.88;4.80;;;;;;;13.59;85.29;94947.22;5131471;27;20272;-80
2022/09/08 02:42:50;;;;;;;6.45;4.47;;;;;;;13.45;86.20;94939.38;5131007;27;20208;-80
2022/09/08 02:45:17;;;;;;;6.82;4.65;;;;;;;13.52;86.52;94948.59;5131089;27;20200;-80
2022/09/08 02:47:44;;;;;;;8.13;4.32;;;;;;;13.46;87.06;94943.69;5117979;27;20229;-80
2022/09/08 02:50:11;;;;;;;6.65;4.38;;;;;;;13.47;86.73;94939.84;5110693;28;20206;-80
2022/09/08 02:52:38;;;;;;;7.05;4.55;;;;;;;13.57;86.28;94944.03;5110434;28;20625;-80
2022/09/08 02:55:07;;;;;;;6.63;4.93;;;;;;;13.53;85.86;94944.72;5110390;28;20194;-80
2022/09/08 02:57:34;;;;;;;8.40;4.53;;;;;;;13.53;85.83;94944.72;5110390;28;20202;-80
2022/09/08 03:00:01;;;;;;;6.88;4.63;;;;;;;13.65;85.65;94945.88;5110493;28;20248;-80
2022/09/08 03:02:28;;;;;;;6.35;4.75;;;;;;;13.62;85.45;94941.13;5110513;28;20197;-80
2022/09/08 03:04:56;;;;;;;6.93;4.72;;;;;;;13.68;84.74;94940.53;5109482;28;20205;-80
2022/09/08 03:07:23;;;;;;;6.25;4.13;;;;;;;13.72;84.57;94951.56;5110583;28;20217;-80
2022/09/08 03:09:51;;;;;;;6.35;4.60;;;;;;;13.62;84.22;94946.56;5110157;28;20206;-80
2022/09/08 03:12:19;;;;;;;6.25;4.07;;;;;;;13.57;84.57;94944.03;5110391;28;20202;-80
2022/09/08 03:14:46;;;;;;;7.88;4.85;;;;;;;13.51;85.02;94938.84;5110009;28;20201;-80
2022/09/08 03:17:13;;;;;;;6.78;4.45;;;;;;;13.50;85.29;94936.47;5109564;28;20231;-80
2022/09/08 03:19:40;;;;;;;4.90;4.38;;;;;;;13.46;85.31;94939.06;5110381;28;20279;-80
2022/09/08 03:22:07;;;;;;;6.30;4.50;;;;;;;13.50;85.27;94934.53;5110300;28;20260;-80
2022/09/08 03:24:34;;;;;;;6.35;4.72;;;;;;;13.55;85.36;94940.88;5110008;28;20287;-80
2022/09/08 03:27:01;;;;;;;6.90;4.53;;;;;;;13.53;85.50;94950.16;5110250;28;20201;-80
2022/09/08 03:29:31;;;;;;;11.18;4.38;;;;;;;13.68;84.83;94951.44;5110244;28;20317;-80
2022/09/08 03:31:58;;;;;;;9.40;5.15;;;;;;;13.72;84.17;94951.56;5130802;28;20241;-80
2022/09/08 03:34:26;;;;;;;5.72;4.28;;;;;;;13.70;84.10;94951.09;5130679;27;20324;-80
2022/09/08 03:36:53;;;;;;;5.53;4.00;;;;;;;13.74;83.98;94954.72;5129918;28;20197;-80
2022/09/08 03:39:20;;;;;;;6.75;4.25;;;;;;;13.74;83.41;94962.91;5130346;28;20737;-80
2022/09/08 03:41:47;;;;;;;7.53;4.38;;;;;;;13.61;83.76;94955.84;5130499;28;20685;-80
2022/09/08 03:44:14;;;;;;;8.85;4.88;;;;;;;13.51;83.96;94957.91;5130333;28;20193;-80
2022/09/08 03:46:42;;;;;;;6.20;4.25;;;;;;;13.48;83.71;94955.03;5128067;27;20238;-80
2022/09/08 03:49:09;;;;;;;5.45;4.63;;;;;;;13.38;84.36;94958.22;5114380;28;20324;-80
2022/09/08 03:51:36;;;;;;;9.10;4.90;;;;;;;13.41;84.97;94957.50;5114543;28;20285;-79
2022/09/08 03:56:50;;;;;;;5.57;4.57;;;;;;;13.45;85.34;94951.06;5114227;28;20235;-80
2022/09/08 03:59:17;;;;;;;7.45;5.13;;;;;;;13.55;85.06;94951.75;5114302;28;20304;-80
2022/09/08 04:01:45;;;;;;;6.68;4.47;;;;;;;13.62;84.81;94946.56;5114048;28;20201;-80
2022/09/08 04:04:12;;;;;;;7.90;5.30;;;;;;;13.74;84.77;94957.47;5113795;28;20202;-80
2022/09/08 04:06:39;;;;;;;7.28;5.22;;;;;;;13.82;84.17;94956.53;5113245;28;20250;-80
2022/09/08 04:09:06;;;;;;;8.18;4.80;;;;;;;13.86;83.65;94952.03;5113932;28;20285;-80
2022/09/08 04:11:34;;;;;;;10.70;4.60;;;;;;;13.96;83.44;94957.00;5113513;28;20203;-80
2022/09/08 04:14:01;;;;;;;6.03;4.70;;;;;;;14.22;81.44;94960.16;5113651;28;20278;-80
2022/09/08 04:16:28;;;;;;;7.80;4.60;;;;;;;14.55;81.18;94961.97;5113602;28;20198;-80
2022/09/08 04:18:56;;;;;;;11.43;4.72;;;;;;;15.19;78.74;94964.59;5113380;28;20251;-80
2022/09/08 04:21:23;;;;;;;6.88;4.32;;;;;;;15.90;76.13;94962.94;5113547;28;20218;-80
2022/09/08 04:23:50;;;;;;;5.00;4.05;;;;;;;16.75;73.30;94956.75;5113502;28;20255;-80
2022/09/08 04:26:17;;;;;;;6.20;4.50;;;;;;;17.62;70.41;94953.38;5113139;28;20198;-80
2022/09/08 04:28:44;;;;;;;7.53;5.00;;;;;;;18.22;68.05;94950.88;5113422;28;20577;-80
2022/09/08 04:31:13;;;;;;;8.73;4.82;;;;;;;18.72;64.73;94946.16;5128327;27;20228;-80
2022/09/08 04:33:41;;;;;;;8.18;4.88;;;;;;;19.26;63.54;94942.94;5133939;27;20293;-80
2022/09/08 04:36:11;;;;;;;6.63;3.70;;;;;;;19.65;62.06;94937.88;5132915;27;20246;-80
2022/09/08 04:38:38;;;;;;;7.85;4.38;;;;;;;20.28;60.60;94936.84;5132395;27;20193;-80
2022/09/08 04:41:06;;;;;;;7.88;4.55;;;;;;;20.86;58.26;94922.28;5132831;27;20244;-80
2022/09/08 04:43:34;;;;;;;6.80;4.60;;;;;;;21.47;57.09;94937.09;5132793;27;20269;-81
2022/09/08 04:46:02;;;;;;;9.07;4.57;;;;;;;21.70;55.71;94931.28;5133505;27;20197;-81
2022/09/08 04:48:30;;;;;;;12.07;5.00;;;;;;;22.00;54.42;94937.25;5113570;27;20625;-80
2022/09/08 04:50:57;;;;;;;14.40;5.30;;;;;;;22.44;54.15;94925.78;5113235;28;20280;-79
2022/09/08 04:53:25;;;;;;;9.35;5.50;;;;;;;23.05;52.14;94926.50;5112904;28;20202;-80
2022/09/08 04:55:52;;;;;;;10.15;5.18;;;;;;;23.66;50.24;94932.53;5111925;28;20206;-80
2022/09/08 04:58:19;;;;;;;9.75;5.63;;;;;;;23.79;50.11;94925.34;5112400;28;20209;-80
2022/09/08 05:00:46;;;;;;;9.05;5.53;;;;;;;24.34;47.70;94932.88;5112445;28;20225;-80
2022/09/08 05:03:13;;;;;;;6.88;5.53;;;;;;;24.84;46.64;94927.69;5112601;28;20202;-80
2022/09/08 05:05:40;;;;;;;9.38;5.30;;;;;;;25.31;45.88;94925.97;5112508;28;20198;-80
2022/09/08 05:08:07;;;;;;;11.00;5.18;;;;;;;25.60;44.97;94920.06;5111619;28;20263;-80
2022/09/08 05:10:35;;;;;;;11.50;6.10;;;;;;;25.46;44.28;94930.16;5112402;28;20201;-79
2022/09/08 05:13:02;;;;;;;7.65;5.50;;;;;;;25.78;44.81;94928.97;5112720;28;20262;-80
2022/09/08 05:15:30;;;;;;;9.85;5.50;;;;;;;25.92;43.64;94939.88;5112535;28;20281;-81
2022/09/08 05:17:57;;;;;;;11.07;5.43;;;;;;;25.85;43.49;94934.41;5112374;28;20201;-80
2022/09/08 05:20:23;;;;;;;9.80;5.53;;;;;;;26.15;43.49;94937.13;5112540;28;20217;-81
2022/09/08 05:22:51;;;;;;;9.98;6.07;;;;;;;26.01;43.14;94937.34;5112345;28;20722;-81
2022/09/08 05:25:17;;;;;;;11.50;5.82;;;;;;;25.00;44.29;94957.66;5112505;28;20263;-80
2022/09/08 05:27:48;;;;;;;6.07;5.47;;;;;;;25.16;43.88;94955.06;5111759;28;20209;-80
2022/09/08 05:30:15;;;;;;;8.07;5.18;;;;;;;25.52;43.69;94949.91;5119141;27;20360;-81
2022/09/08 05:32:42;;;;;;;9.93;5.63;;;;;;;25.47;42.71;94959.47;5132673;27;20295;-80
2022/09/08 05:35:09;;;;;;;10.88;6.07;;;;;;;24.84;44.07;94951.84;5132665;27;20217;-80
2022/09/08 05:37:36;;;;;;;11.68;6.18;;;;;;;23.83;46.18;94964.88;5132173;27;20201;-81
2022/09/08 05:40:03;;;;;;;9.70;6.03;;;;;;;24.52;45.84;94958.47;5131597;27;20220;-81
2022/09/08 05:42:30;;;;;;;9.68;5.85;;;;;;;25.60;44.20;94956.13;5132728;27;20659;-81
2022/09/08 05:44:58;;;;;;;11.68;7.05;;;;;;;26.36;42.26;94949.16;5132530;27;20202;-81
2022/09/08 05:47:25;;;;;;;11.27;6.28;;;;;;;26.31;42.60;94944.06;5121075;27;20261;-81
2022/09/08 05:49:52;;;;;;;8.00;5.68;;;;;;;26.42;41.13;94939.13;5111909;28;20230;-80
2022/09/08 05:52:20;;;;;;;9.77;6.03;;;;;;;26.53;42.13;94948.06;5111828;28;20209;-81
2022/09/08 05:54:46;;;;;;;11.63;6.95;;;;;;;27.78;39.61;94949.31;5111645;28;20288;-81
2022/09/08 05:57:14;;;;;;;11.88;6.10;;;;;;;27.13;40.23;94949.03;5111106;28;20197;-80
2022/09/08 05:59:42;;;;;;;14.77;6.75;;;;;;;27.20;39.71;94946.09;5110588;28;20395;-80
2022/09/08 06:02:10;;;;;;;13.63;6.30;;;;;;;26.87;39.92;94951.44;5110519;28;20198;-80
2022/09/08 06:04:37;;;;;;;10.02;6.13;;;;;;;25.46;42.48;94963.44;5111017;28;20202;-79
2022/09/08 06:07:04;;;;;;;7.80;6.40;;;;;;;26.68;41.23;94941.06;5111498;28;20560;-81
2022/09/08 06:09:31;;;;;;;10.95;5.70;;;;;;;27.24;39.54;94944.81;5110509;28;20245;-79
2022/09/08 06:11:57;;;;;;;10.15;6.07;;;;;;;27.35;39.92;94952.94;5110767;28;20209;-81
2022/09/08 06:14:24;;;;;;;14.40;5.93;;;;;;;27.72;38.94;94948.25;5111005;28;20725;-81
2022/09/08 06:16:51;;;;;;;8.57;5.22;;;;;;;28.16;37.76;94946.84;5110837;28;20250;-81
2022/09/08 06:19:19;;;;;;;11.43;5.80;;;;;;;27.72;38.89;94953.84;5111284;28;20202;-80
2022/09/08 06:21:46;;;;;;;7.82;5.18;;;;;;;27.28;38.46;94961.44;5111312;28;20209;-80
2022/09/08 06:24:14;;;;;;;9.40;5.63;;;;;;;26.25;40.68;94956.81;5111172;28;20201;-81
2022/09/08 06:26:54;;;;;;;9.13;5.75;;;;;;;27.11;39.54;94965.34;5110984;28;20257;-83
2022/09/08 06:29:35;;;;;;;6.93;5.15;;;;;;;27.61;38.30;94961.63;5110271;28;20216;-83
2022/09/08 06:32:10;;;;;;;8.02;5.05;;;;;;;28.21;37.23;94958.31;5110988;28;20515;-83
2022/09/08 06:34:42;;;;;;;8.27;5.22;;;;;;;27.19;39.08;94958.44;5110791;28;20217;-83
2022/09/08 06:37:19;;;;;;;7.90;5.07;;;;;;;26.57;39.90;94962.69;5111192;28;20267;-82
2022/09/08 06:39:51;;;;;;;9.65;5.22;;;;;;;27.11;39.31;94962.56;5110748;28;20190;-81
2022/09/08 06:42:31;;;;;;;9.23;4.93;;;;;;;27.53;38.80;94961.72;5110536;28;20190;-82
2022/09/08 06:45:03;;;;;;;7.35;4.90;;;;;;;27.06;38.50;94976.97;5110996;28;20239;-82
2022/09/08 06:47:40;;;;;;;6.75;4.93;;;;;;;27.92;38.11;94974.06;5121777;27;20547;-83
2022/09/08 06:50:12;;;;;;;12.35;4.60;;;;;;;28.54;36.64;94969.50;5131371;27;20682;-81
2022/09/08 06:52:46;;;;;;;8.15;4.95;;;;;;;28.82;36.07;94971.63;5131312;27;20230;-81
2022/09/08 06:55:23;;;;;;;6.82;5.40;;;;;;;28.74;36.53;94974.97;5131341;27;20231;-80
2022/09/08 06:58:03;;;;;;;8.10;5.63;;;;;;;27.57;38.84;94979.19;5131010;27;20191;-81
2022/09/08 07:00:38;;;;;;;10.38;5.38;;;;;;;27.47;38.88;94980.13;5130837;27;20227;-81
2022/09/08 07:03:20;;;;;;;11.98;5.60;;;;;;;27.49;38.43;94980.50;5130649;27;20188;-77
2022/09/08 07:06:03;;;;;;;7.80;5.55;;;;;;;27.63;39.24;94978.66;5130434;27;20189;-82
2022/09/08 07:08:59;;;;;;;9.98;5.45;;;;;;;27.08;39.24;94992.00;5129866;27;20185;-79
2022/09/08 07:11:46;;;;;;;8.23;5.47;;;;;;;27.60;39.00;94983.13;5130555;27;20197;-82
2022/09/08 07:14:53;;;;;;;11.02;5.28;;;;;;;25.70;41.98;95005.19;5130252;27;20226;-81
2022/09/08 07:17:24;;;;;;;5.68;4.97;;;;;;;25.76;41.62;94992.44;5099820;27;20250;-80
2022/09/08 07:19:54;;;;;;;5.45;4.53;;;;;;;25.89;41.34;94990.69;5130308;27;20684;-81
2022/09/08 07:22:33;;;;;;;8.75;4.63;;;;;;;26.70;39.65;94988.69;5130561;27;20218;-80
2022/09/08 07:25:15;;;;;;;6.00;4.63;;;;;;;26.07;40.37;94994.00;5130055;27;20185;-80
2022/09/08 07:27:43;;;;;;;6.80;4.80;;;;;;;26.59;40.19;94984.50;5130853;28;20241;-81
2022/09/08 07:30:14;;;;;;;8.25;4.80;;;;;;;26.95;39.91;94981.94;5123079;28;20237;-80
2022/09/08 07:32:42;;;;;;;7.95;4.75;;;;;;;27.40;39.61;94980.28;5110273;28;20308;-80
2022/09/08 07:35:17;;;;;;;5.40;4.57;;;;;;;27.18;40.25;94987.47;5109952;28;20218;-80
2022/09/08 07:37:49;;;;;;;8.35;4.90;;;;;;;27.36;38.81;94987.91;5109950;28;20235;-80
2022/09/08 07:40:19;;;;;;;6.50;4.82;;;;;;;27.31;40.02;94987.63;5109813;28;20193;-81
2022/09/08 07:42:49;;;;;;;8.00;4.93;;;;;;;26.42;40.26;94983.59;5109628;28;20644;-80
2022/09/08 07:45:16;;;;;;;9.50;5.05;;;;;;;25.88;41.16;94994.66;5109344;28;20288;-80
2022/09/08 07:47:54;;;;;;;7.80;5.10;;;;;;;25.47;42.18;94989.19;5122655;28;20700;-80
2022/09/08 07:50:53;;;;;;;8.20;5.00;;;;;;;25.63;41.66;94996.97;5130573;28;20217;-79
2022/09/08 07:53:34;;;;;;;9.55;4.80;;;;;;;25.95;41.95;94988.22;5130332;28;20493;-79
2022/09/08 07:56:10;;;;;;;8.82;5.00;;;;;;;25.80;42.45;94988.41;5130442;28;20228;-81
2022/09/08 07:58:44;;;;;;;8.43;5.10;;;;;;;25.75;41.84;94994.44;5130639;27;20224;-82
2022/09/08 08:01:19;;;;;;;7.55;4.90;;;;;;;26.39;41.60;94978.84;5129845;28;20189;-81
2022/09/08 08:03:55;;;;;;;7.95;4.38;;;;;;;26.34;42.17;94976.56;5130463;28;20181;-81
2022/09/08 08:06:35;;;;;;;6.50;4.90;;;;;;;25.78;42.32;94984.47;5130528;28;20249;-80
2022/09/08 08:09:16;;;;;;;10.93;5.68;;;;;;;25.23;42.39;94990.28;5130031;28;20747;-81
2022/09/08 08:11:48;;;;;;;6.85;4.88;;;;;;;25.45;42.76;94984.06;5130645;28;20180;-81
2022/09/08 08:14:26;;;;;;;10.38;4.82;;;;;;;25.31;42.53;94978.69;5130066;28;20280;-81
2022/09/08 08:17:04;;;;;;;9.00;5.45;;;;;;;24.63;44.26;94983.28;5130149;28;20242;-79
2022/09/08 08:19:47;;;;;;;8.93;4.85;;;;;;;24.30;44.72;94982.78;5130443;27;20235;-80
2022/09/08 08:22:24;;;;;;;8.80;4.57;;;;;;;24.36;44.91;94985.88;5130646;28;20250;-81
2022/09/08 08:25:02;;;;;;;8.75;4.95;;;;;;;24.69;44.09;94982.47;5130103;28;20597;-81
2022/09/08 08:27:36;;;;;;;6.65;4.65;;;;;;;25.36;43.08;94983.78;5130294;28;20276;-81
2022/09/08 08:30:13;;;;;;;7.78;4.82;;;;;;;26.05;42.05;94971.41;5123983;28;20233;-80
2022/09/08 08:32:44;;;;;;;9.65;4.88;;;;;;;25.80;43.03;94979.31;5111283;28;20196;-80
2022/09/08 08:35:20;;;;;;;5.82;5.00;;;;;;;25.08;44.70;94987.66;5113265;28;20217;-81
2022/09/08 08:37:50;;;;;;;7.90;4.88;;;;;;;25.37;42.95;94977.03;5113272;28;20280;-81
2022/09/08 08:40:34;;;;;;;6.35;4.55;;;;;;;25.93;42.80;94963.66;5113170;28;20186;-81
2022/09/08 08:43:21;;;;;;;6.90;4.88;;;;;;;26.29;42.31;94946.47;5113267;28;20539;-81
2022/09/08 08:46:03;;;;;;;6.25;4.85;;;;;;;26.09;41.73;94961.06;5112333;28;20654;-80
2022/09/08 08:48:44;;;;;;;9.10;4.55;;;;;;;26.35;42.08;94951.16;5132432;27;20193;-81
2022/09/08 08:51:27;;;;;;;9.90;4.80;;;;;;;25.78;43.50;94951.19;5133591;27;20212;-79
2022/09/08 08:54:09;;;;;;;8.93;4.90;;;;;;;25.36;43.49;94958.03;5133702;27;20581;-81
2022/09/08 08:56:40;;;;;;;6.07;4.70;;;;;;;25.53;44.44;94945.16;5133543;27;20193;-81
2022/09/08 08:59:30;;;;;;;7.55;5.13;;;;;;;24.91;43.95;94940.66;5133232;27;20695;-81
2022/09/08 09:02:23;;;;;;;6.55;5.22;;;;;;;25.41;43.70;94947.28;5132922;27;20193;-81
2022/09/08 09:05:13;;;;;;;5.93;4.88;;;;;;;25.25;43.83;94935.97;5133219;27;20193;-80
2022/09/08 09:08:16;;;;;;;7.55;4.90;;;;;;;24.95;44.45;94933.94;5133478;27;20196;-79
2022/09/08 09:11:03;;;;;;;7.32;4.60;;;;;;;25.21;44.60;94924.13;5132843;27;20220;-78
2022/09/08 09:14:12;;;;;;;7.38;4.78;;;;;;;25.62;43.14;94921.25;5133344;27;20193;-80
2022/09/08 09:16:55;;;;;;;5.35;4.75;;;;;;;25.37;43.50;94910.47;5128630;27;20200;-81
2022/09/08 09:20:01;;;;;;;7.18;4.95;;;;;;;26.15;42.11;94908.56;5132614;27;20237;-79
2022/09/08 09:22:37;;;;;;;9.63;5.28;;;;;;;25.64;42.54;94896.66;5132656;27;20258;-78
2022/09/08 09:25:13;;;;;;;7.70;5.05;;;;;;;25.08;44.25;94904.47;5132921;27;20610;-78
2022/09/08 09:27:46;;;;;;;6.63;5.38;;;;;;;24.99;44.47;94900.63;5133146;27;20200;-79
2022/09/08 09:30:21;;;;;;;6.85;5.35;;;;;;;25.32;44.10;94890.69;5125243;27;20233;-78
2022/09/08 09:33:15;;;;;;;5.50;4.60;;;;;;;25.53;42.43;94889.66;5112077;28;20190;-79
2022/09/08 09:36:18;;;;;;;6.40;4.63;;;;;;;25.36;44.19;94877.59;5111754;28;20186;-79
2022/09/08 09:38:59;;;;;;;7.68;5.20;;;;;;;25.20;43.85;94888.47;5095453;28;20205;-80
2022/09/08 09:42:00;;;;;;;5.80;4.70;;;;;;;25.15;44.56;94881.41;5111401;28;20247;-79
2022/09/08 09:44:44;;;;;;;6.63;4.75;;;;;;;24.88;44.48;94889.59;5106629;28;20197;-80
2022/09/08 09:47:43;;;;;;;6.63;4.60;;;;;;;24.96;43.78;94882.03;5119631;27;20192;-75
2022/09/08 09:50:37;;;;;;;8.55;5.10;;;;;;;25.14;43.46;94877.09;5119163;27;20224;-80
2022/09/08 09:53:19;;;;;;;5.97;4.60;;;;;;;25.12;42.91;94876.72;5132065;27;20182;-79
2022/09/08 09:56:22;;;;;;;5.72;4.35;;;;;;;25.09;42.84;94866.44;5131516;27;20205;-79
2022/09/08 09:59:27;;;;;;;5.75;4.72;;;;;;;25.49;43.43;94853.63;5100115;27;20273;-80
2022/09/08 10:02:23;;;;;;;7.68;4.57;;;;;;;26.02;42.43;94850.06;5090135;27;20204;-78
2022/09/08 10:05:25;;;;;;;5.65;4.65;;;;;;;26.00;41.46;94846.91;5131597;27;20275;-78
2022/09/08 10:08:19;;;;;;;8.65;4.85;;;;;;;26.07;41.93;94838.50;5132080;27;20189;-79
2022/09/08 10:11:01;;;;;;;11.00;5.18;;;;;;;25.85;42.69;94834.47;5131910;27;20229;-79
2022/09/08 10:13:58;;;;;;;11.88;4.38;;;;;;;25.20;43.88;94836.59;5131669;27;20233;-78
2022/09/08 10:16:53;;;;;;;7.43;5.07;;;;;;;25.62;43.01;94826.91;5128105;27;20196;-78
2022/09/08 10:20:04;;;;;;;7.38;4.57;;;;;;;25.37;42.60;94824.47;5130962;27;20266;-78
2022/09/08 10:22:56;;;;;;;8.60;4.82;;;;;;;25.16;44.32;94830.28;5131481;27;20257;-80
2022/09/08 10:25:48;;;;;;;10.07;4.93;;;;;;;25.42;42.88;94818.44;5131151;27;20732;-79
2022/09/08 10:28:50;;;;;;;5.80;4.60;;;;;;;25.39;43.48;94819.28;5131540;27;20201;-78
2022/09/08 10:31:59;;;;;;;9.48;5.30;;;;;;;25.52;43.68;94804.84;5111392;27;20232;-79
2022/09/08 10:34:55;;;;;;;9.48;4.53;;;;;;;25.88;41.70;94797.53;5110599;28;20225;-79
2022/09/08 10:37:44;;;;;;;7.00;5.00;;;;;;;25.56;44.04;94800.78;5110790;28;20752;-78
2022/09/08 10:40:36;;;;;;;5.68;5.10;;;;;;;25.42;43.59;94796.25;5110650;28;20607;-80
2022/09/08 10:43:30;;;;;;;8.82;4.72;;;;;;;25.35;44.14;94790.81;5110525;28;20193;-80
2022/09/08 10:46:20;;;;;;;7.75;5.30;;;;;;;25.58;44.51;94792.06;5110645;28;20186;-79
2022/09/08 10:49:28;;;;;;;7.82;5.20;;;;;;;25.71;43.90;94791.06;5110501;28;20639;-80
2022/09/08 10:52:26;;;;;;;6.07;4.97;;;;;;;26.15;42.98;94787.16;5094635;28;20224;-79
2022/09/08 10:55:27;;;;;;;6.55;5.00;;;;;;;26.22;42.17;94785.47;5110588;28;20265;-80
2022/09/08 10:58:18;;;;;;;11.15;6.13;;;;;;;26.62;41.89;94776.00;5101492;28;20564;-79
2022/09/08 11:00:59;;;;;;;8.98;5.10;;;;;;;26.64;42.85;94781.13;5109817;28;20193;-79
2022/09/08 11:03:45;;;;;;;6.63;4.60;;;;;;;26.41;41.61;94770.84;5109819;28;20193;-79
2022/09/08 11:06:24;;;;;;;6.78;4.53;;;;;;;26.92;41.63;94772.97;5109854;28;20202;-79
2022/09/08 11:09:15;;;;;;;11.77;4.72;;;;;;;27.12;41.73;94774.97;5110167;28;20189;-80
2022/09/08 11:12:03;;;;;;;7.47;4.90;;;;;;;27.43;40.92;94773.50;5110240;28;20591;-79
2022/09/08 11:15:09;;;;;;;6.93;4.75;;;;;;;27.74;39.93;94764.84;5110897;28;20243;-80
2022/09/08 11:17:43;;;;;;;5.05;4.53;;;;;;;27.84;40.69;94761.03;5110125;28;20208;-80
2022/09/08 11:20:16;;;;;;;6.28;4.85;;;;;;;27.53;39.49;94758.53;5109834;28;20311;-76
2022/09/08 11:22:57;;;;;;;8.50;4.95;;;;;;;26.97;40.37;94762.59;5109800;28;20651;-79
2022/09/08 11:25:46;;;;;;;7.47;5.15;;;;;;;27.15;40.61;94751.88;5110308;28;20193;-79
2022/09/08 11:28:23;;;;;;;9.30;4.88;;;;;;;27.45;41.16;94754.38;5110294;28;20239;-80
2022/09/08 11:31:01;;;;;;;8.93;6.43;;;;;;;27.46;39.82;94755.94;5121917;28;20282;-78
2022/09/08 11:33:45;;;;;;;5.95;4.63;;;;;;;27.14;40.95;94761.44;5130322;27;20573;-80
2022/09/08 11:36:27;;;;;;;8.07;4.40;;;;;;;27.38;40.44;94743.38;5130455;28;20193;-79
2022/09/08 11:39:13;;;;;;;8.95;4.75;;;;;;;27.87;40.32;94751.78;5130407;28;20185;-81
2022/09/08 11:42:08;;;;;;;7.72;4.70;;;;;;;28.23;40.12;94751.69;5130328;28;20636;-80
2022/09/08 11:44:48;;;;;;;5.38;4.32;;;;;;;27.70;39.43;94761.38;5130660;28;20270;-79
2022/09/08 11:47:50;;;;;;;6.57;4.70;;;;;;;27.20;40.53;94766.03;5120642;28;20235;-80
2022/09/08 11:50:35;;;;;;;5.13;4.50;;;;;;;26.92;41.02;94761.84;5110029;28;20261;-78
2022/09/08 11:53:47;;;;;;;7.57;4.60;;;;;;;27.35;41.61;94757.38;5109241;28;20590;-80
2022/09/08 11:56:31;;;;;;;5.65;4.57;;;;;;;27.66;41.16;94758.66;5071746;28;20727;-81
2022/09/08 11:59:16;;;;;;;5.03;4.28;;;;;;;27.84;40.18;94761.81;5109530;28;20217;-79
2022/09/08 12:01:57;;;;;;;5.38;4.82;;;;;;;28.20;41.18;94747.75;5109311;28;20190;-81
2022/09/08 12:04:42;;;;;;;8.55;5.00;;;;;;;28.45;39.21;94751.88;5109061;28;20186;-80
2022/09/08 12:07:35;;;;;;;6.25;3.95;;;;;;;28.78;38.88;94752.56;5109796;28;20189;-81
2022/09/08 12:10:28;;;;;;;10.20;4.63;;;;;;;28.82;39.08;94751.28;5112954;28;20478;-80
2022/09/08 12:13:05;;;;;;;7.75;4.85;;;;;;;28.61;39.05;94749.81;5113859;28;20594;-79
2022/09/08 12:15:52;;;;;;;6.22;4.75;;;;;;;28.64;39.77;94748.16;5113657;28;20235;-80
2022/09/08 12:18:32;;;;;;;6.93;4.45;;;;;;;28.52;39.17;94751.69;5113954;28;20194;-79
2022/09/08 12:21:31;;;;;;;6.97;4.70;;;;;;;28.63;39.69;94757.75;5112715;28;20690;-81